Terminal Aerodrome Forecast
Issued by NWS Missoula, MT

Home | Current Version | Previous Version | Text Only | Print | Product List | Glossary On
Versions: 1 2 3 4 5 6 7 8 9 10 11 12 13 14 15 16 17 18 19 20 21 22 23 24
637
FTUS45 KMSO 170225 AAA
TAFMSO
TAF AMD
KMSO 170225Z 1702/1724 29004KT P6SM BKN060
     FM170900 00000KT 4SM BR BKN006 OVC040
     FM171600 00000KT 6SM HZ SCT020 BKN060=

USA.gov is the U.S. government's official web portal to all federal, state and local government web resources and services.